Pronóstico
Mapa Interactivo
Aviación
Climatología
Hidrometeorología
Agrometeorología
Estaciones Automáticas
Transparencia
OMM WMO
Portada
Institución
Noticias
Imágenes
Tsunami
Historial
Boletines y Alertas
Contactos
Buscar Contenidos
Informe del Tiempo

SADR31 MDSD 240000Z
METAR

METAR MDPP 240000Z 00000KT 9999 FEW018 24/23 Q1016=
METAR MDST 240000Z 15007KT 9999 FEW019 24/20 Q1016=
METAR MDPC 240000Z 05004KT 9999 FEW020 25/21 Q1016 NOSIG=
METAR MDBH 240000Z 13006KT 9999 FEW018 26/22 Q1015=
METAR MDSD 240000Z 02004KT 9999 SCT018 25/23 Q1015=
METAR MDLR 240000Z 00000KT 9999 FEW018 23/22 Q1016=
METAR MDCY 240000Z 09010KT 9999 SCT018 26/22 Q1017=